Time;durP1;ratioP1;P1;durP2;ratioP2;P2;SDS_P1;SDS_P2;PMS_P1;PMS_P2;Temp;Humidity;BMP_temperature;BMP_pressure;BME280_temperature;BME280_humidity;BME280_pressure;Samples;Min_cycle;Max_cycle;Signal;HPM_P1;HPM_P2
2022/01/25 00:08:54;;;;;;;70.97;28.70;;;4.50;1.00;;;;;;6212409;23;20397;-51
2022/01/25 00:25:30;;;;;;;77.70;29.40;;;4.40;1.00;;;;;;6213054;23;20377;-50
2022/01/25 00:28:16;;;;;;;76.37;29.20;;;4.40;1.00;;;;;;6213260;23;20364;-50
2022/01/25 00:30:59;;;;;;;80.53;29.37;;;4.40;1.00;;;;;;6212733;23;20483;-50
2022/01/25 00:33:25;;;;;;;84.40;30.10;;;4.40;1.00;;;;;;6212820;23;20365;-50
2022/01/25 00:35:51;;;;;;;77.27;28.57;;;4.40;1.00;;;;;;6212745;23;20374;-55
2022/01/25 00:38:16;;;;;;;80.27;30.43;;;4.40;1.00;;;;;;6212454;23;20918;-51
2022/01/25 00:40:42;;;;;;;78.33;31.20;;;4.40;1.00;;;;;;6185980;23;20159;-50
2022/01/25 00:43:08;;;;;;;96.80;34.10;;;4.40;1.00;;;;;;6212818;23;20143;-50
2022/01/25 00:45:33;;;;;;;82.87;29.53;;;4.40;1.00;;;;;;6212846;23;20155;-50
2022/01/25 00:48:02;;;;;;;91.97;33.53;;;4.40;1.00;;;;;;6212608;23;20601;-51
2022/01/25 00:50:31;;;;;;;96.00;35.43;;;4.40;1.00;;;;;;6212456;23;20143;-50
2022/01/25 00:55:23;;;;;;;95.90;34.70;;;4.30;1.00;;;;;;6223228;23;20428;-50
2022/01/25 00:57:48;;;;;;;92.23;34.57;;;4.30;1.00;;;;;;6212580;23;20233;-50
2022/01/25 01:00:15;;;;;;;90.90;33.60;;;4.30;1.00;;;;;;6212648;23;20167;-51
2022/01/25 01:02:40;;;;;;;96.60;34.10;;;4.40;1.00;;;;;;6212574;23;20181;-51
2022/01/25 01:05:07;;;;;;;91.60;32.37;;;4.30;1.00;;;;;;6212615;23;20366;-51
2022/01/25 01:07:33;;;;;;;87.30;32.60;;;4.30;1.00;;;;;;6212460;23;20162;-50
2022/01/25 01:10:00;;;;;;;90.60;34.70;;;4.40;7.70;;;;;;6210979;23;20423;-50
2022/01/25 01:13:13;;;;;;;102.43;36.40;;;4.40;1.00;;;;;;6212747;23;20153;-50
2022/01/25 01:15:35;;;;;;;95.63;33.27;;;4.40;1.00;;;;;;6211657;23;20399;-51
2022/01/25 01:29:12;;;;;;;104.87;36.03;;;4.30;6.00;;;;;;6212576;23;20415;-50
2022/01/25 01:34:41;;;;;;;114.93;38.57;;;4.30;1.00;;;;;;6222699;23;20373;-50
2022/01/25 01:39:50;;;;;;;119.67;37.07;;;4.30;1.00;;;;;;6222743;23;20374;-51
2022/01/25 01:42:50;;;;;;;107.87;37.57;;;4.30;44.40;;;;;;6212345;23;20158;-51
2022/01/25 01:48:01;;;;;;;105.67;36.27;;;4.30;1.00;;;;;;6212194;23;20378;-50
2022/01/25 01:50:30;;;;;;;122.03;38.70;;;4.30;49.30;;;;;;6212240;23;20366;-51
2022/01/25 01:52:56;;;;;;;105.10;37.20;;;4.30;1.00;;;;;;6212375;23;20382;-51
2022/01/25 01:55:22;;;;;;;110.17;38.10;;;4.30;1.00;;;;;;6212331;23;20420;-50
2022/01/25 01:57:49;;;;;;;109.23;37.57;;;4.30;1.00;;;;;;6212587;23;20429;-50
2022/01/25 02:00:17;;;;;;;115.10;37.83;;;4.40;1.00;;;;;;6212379;23;20212;-51
2022/01/25 02:02:43;;;;;;;115.90;37.53;;;4.30;1.00;;;;;;6211967;23;20485;-50
2022/01/25 02:05:08;;;;;;;108.10;37.90;;;4.30;1.00;;;;;;6212209;23;20666;-50
2022/01/25 02:07:34;;;;;;;109.10;37.67;;;4.30;1.00;;;;;;6212872;23;20433;-50
2022/01/25 02:09:59;;;;;;;111.90;38.30;;;4.30;1.00;;;;;;6212059;23;20177;-50
2022/01/25 02:12:26;;;;;;;110.77;39.20;;;4.30;4.80;;;;;;6212089;23;20577;-51
2022/01/25 02:14:52;;;;;;;104.30;36.33;;;4.30;20.30;;;;;;6212006;23;20162;-50
2022/01/25 02:23:20;;;;;;;116.20;36.83;;;4.30;99.90;;;;;;6211896;23;20399;-50
2022/01/25 02:25:53;;;;;;;112.00;37.77;;;4.30;99.90;;;;;;6211974;23;20370;-50
2022/01/25 02:28:19;;;;;;;110.50;38.20;;;4.30;99.90;;;;;;6212275;23;20831;-50
2022/01/25 02:30:46;;;;;;;112.57;37.27;;;4.20;99.90;;;;;;6212201;23;20386;-50
2022/01/25 02:33:12;;;;;;;108.67;39.00;;;4.20;99.90;;;;;;6211688;23;20373;-51
2022/01/25 02:35:39;;;;;;;118.63;37.63;;;4.20;99.90;;;;;;6211587;23;20380;-50
2022/01/25 02:38:05;;;;;;;105.33;37.70;;;4.20;99.90;;;;;;6211516;23;20185;-50
2022/01/25 02:40:30;;;;;;;115.33;37.60;;;4.20;99.90;;;;;;6211900;23;20366;-50
2022/01/25 02:42:56;;;;;;;111.30;38.10;;;4.20;99.90;;;;;;6211396;23;20161;-50
2022/01/25 02:45:24;;;;;;;104.00;36.13;;;4.20;99.90;;;;;;6211862;23;20173;-50
2022/01/25 02:50:34;;;;;;;112.10;38.00;;;4.20;99.90;;;;;;6211623;23;20750;-50
2022/01/25 02:52:59;;;;;;;115.77;37.80;;;4.20;99.90;;;;;;6211969;23;20461;-50
2022/01/25 02:55:25;;;;;;;103.20;34.67;;;4.20;99.90;;;;;;6211969;23;20800;-50
2022/01/25 02:57:51;;;;;;;120.80;42.07;;;4.20;99.90;;;;;;6209777;23;20240;-50
2022/01/25 03:00:17;;;;;;;115.53;38.27;;;4.20;99.90;;;;;;6211761;23;20179;-50
2022/01/25 03:02:42;;;;;;;114.20;36.30;;;4.20;99.90;;;;;;6211512;23;20147;-50
2022/01/25 03:05:09;;;;;;;114.23;36.57;;;4.20;99.90;;;;;;6212055;23;21030;-50
2022/01/25 03:07:37;;;;;;;115.30;40.10;;;4.20;99.90;;;;;;6212174;23;20803;-50
2022/01/25 03:10:03;;;;;;;115.57;39.10;;;4.10;99.90;;;;;;6212120;23;20386;-50
2022/01/25 03:12:40;;;;;;;112.50;37.87;;;4.10;99.90;;;;;;6212070;23;20386;-50
2022/01/25 03:15:26;;;;;;;135.87;42.13;;;4.10;1.00;;;;;;6211868;23;20362;-51
2022/01/25 03:17:57;;;;;;;128.30;38.77;;;4.20;1.00;;;;;;6213423;23;20463;-50
2022/01/25 03:20:36;;;;;;;115.30;37.90;;;4.10;1.00;;;;;;6213268;23;20479;-50
2022/01/25 03:23:16;;;;;;;120.67;38.93;;;4.10;1.00;;;;;;6213491;23;20830;-50
2022/01/25 03:25:42;;;;;;;120.10;39.73;;;4.10;1.00;;;;;;6213883;23;20511;-50
2022/01/25 03:28:07;;;;;;;106.87;37.83;;;4.10;1.00;;;;;;6212222;23;20973;-50
2022/01/25 03:30:33;;;;;;;110.97;38.83;;;4.10;1.00;;;;;;6213745;23;20463;-50
2022/01/25 03:32:59;;;;;;;118.43;37.70;;;4.10;1.00;;;;;;6213078;23;20165;-50
2022/01/25 03:35:24;;;;;;;113.23;40.40;;;4.10;46.50;;;;;;6213477;23;20157;-50
2022/01/25 03:37:50;;;;;;;123.90;40.43;;;4.10;94.40;;;;;;6213221;23;20205;-50
2022/01/25 03:40:15;;;;;;;123.10;38.97;;;4.10;99.90;;;;;;6213309;23;20695;-50
2022/01/25 03:42:41;;;;;;;109.57;37.00;;;4.10;99.90;;;;;;6213343;23;20147;-50
2022/01/25 03:45:09;;;;;;;129.17;40.97;;;4.20;99.90;;;;;;6213420;23;20143;-51
2022/01/25 03:50:20;;;;;;;111.80;37.33;;;4.20;99.90;;;;;;6213310;23;20404;-51
2022/01/25 03:52:45;;;;;;;113.07;39.17;;;4.10;71.90;;;;;;6213417;23;20401;-50
2022/01/25 03:55:11;;;;;;;122.10;39.40;;;4.10;99.90;;;;;;6213600;23;20233;-50
2022/01/25 03:57:36;;;;;;;127.93;40.07;;;4.10;99.90;;;;;;6213287;23;20260;-50
2022/01/25 04:00:04;;;;;;;127.83;40.90;;;4.20;78.30;;;;;;6213137;23;20153;-58
2022/01/25 04:02:32;;;;;;;124.90;41.20;;;4.20;1.00;;;;;;6212823;23;20158;-50
2022/01/25 04:05:00;;;;;;;119.47;38.83;;;4.20;99.90;;;;;;6213105;23;20366;-50
2022/01/25 04:07:41;;;;;;;113.43;38.80;;;4.20;99.90;;;;;;6213656;23;20471;-50
2022/01/25 04:10:07;;;;;;;126.80;39.93;;;4.20;99.90;;;;;;6212832;23;20413;-50
2022/01/25 04:12:33;;;;;;;125.73;41.50;;;4.10;99.90;;;;;;6213237;23;20469;-50
2022/01/25 04:14:59;;;;;;;119.60;41.47;;;4.10;1.00;;;;;;6212744;23;20394;-50
2022/01/25 04:17:25;;;;;;;117.57;39.47;;;4.20;1.00;;;;;;6212837;23;20194;-50
2022/01/25 04:20:11;;;;;;;119.97;40.77;;;4.10;1.00;;;;;;6213012;23;21209;-50
2022/01/25 04:25:20;;;;;;;123.67;41.97;;;4.10;1.00;;;;;;6213204;23;20428;-49
2022/01/25 04:27:46;;;;;;;122.33;40.90;;;4.10;1.00;;;;;;6212955;23;20724;-50
2022/01/25 04:30:12;;;;;;;121.63;40.87;;;4.20;1.00;;;;;;6212989;23;20185;-50
2022/01/25 04:32:48;;;;;;;131.07;42.17;;;4.20;1.00;;;;;;6213101;23;20919;-50
2022/01/25 04:48:58;;;;;;;120.07;40.23;;;4.20;1.00;;;;;;6210424;23;20369;-50
2022/01/25 04:51:47;;;;;;;133.93;42.03;;;4.20;99.90;;;;;;6212911;23;20406;-50
2022/01/25 04:54:25;;;;;;;119.60;39.50;;;4.20;99.90;;;;;;6212823;23;20372;-50
2022/01/25 04:59:31;;;;;;;131.50;42.57;;;4.20;99.90;;;;;;6223003;23;20379;-50
2022/01/25 05:02:04;;;;;;;130.40;41.90;;;4.10;99.90;;;;;;6212629;23;20138;-50
2022/01/25 05:04:35;;;;;;;119.60;39.33;;;4.10;1.00;;;;;;6212979;23;20670;-50
2022/01/25 05:07:14;;;;;;;131.53;42.00;;;4.10;1.00;;;;;;6212629;23;20439;-50
2022/01/25 05:09:41;;;;;;;127.03;42.97;;;4.10;99.90;;;;;;6212635;23;20393;-50
2022/01/25 05:12:09;;;;;;;116.70;38.80;;;4.10;99.90;;;;;;6212680;23;20382;-50
2022/01/25 05:14:46;;;;;;;132.37;40.43;;;4.20;99.90;;;;;;6212338;23;20508;-50
2022/01/25 05:17:17;;;;;;;125.97;41.10;;;4.20;99.90;;;;;;6212423;23;21042;-50
2022/01/25 05:22:27;;;;;;;118.90;38.93;;;4.20;99.90;;;;;;6222573;23;20374;-50
2022/01/25 05:24:54;;;;;;;125.73;39.20;;;4.20;99.90;;;;;;6212178;23;20862;-50
2022/01/25 05:27:27;;;;;;;113.03;40.70;;;4.20;99.90;;;;;;6212360;23;20457;-51
2022/01/25 05:29:52;;;;;;;110.53;38.60;;;4.20;99.90;;;;;;6212079;23;20428;-50
2022/01/25 05:32:18;;;;;;;121.23;38.73;;;4.20;99.90;;;;;;6212529;23;20833;-50
2022/01/25 05:34:44;;;;;;;113.20;39.53;;;4.20;99.90;;;;;;6212304;23;20476;-50
2022/01/25 05:37:09;;;;;;;120.30;40.93;;;4.10;99.90;;;;;;6212096;23;20220;-50
2022/01/25 05:39:37;;;;;;;119.40;40.30;;;4.10;99.90;;;;;;6212278;23;20696;-50
2022/01/25 05:42:30;;;;;;;125.27;38.67;;;4.10;1.00;;;;;;6211975;23;20150;-50
2022/01/25 05:45:00;;;;;;;115.40;36.27;;;4.10;1.00;;;;;;6211674;23;20354;-50
2022/01/25 05:47:31;;;;;;;126.93;40.87;;;4.20;1.00;;;;;;6212364;23;20392;-50
2022/01/25 05:49:58;;;;;;;118.23;40.23;;;4.20;1.00;;;;;;6211700;23;20453;-50
2022/01/25 05:52:24;;;;;;;119.33;41.03;;;4.20;1.00;;;;;;6211821;23;20470;-50
2022/01/25 05:54:50;;;;;;;123.37;40.20;;;4.20;1.00;;;;;;6211864;23;20381;-50
2022/01/25 05:57:16;;;;;;;131.83;42.00;;;4.20;1.00;;;;;;6212265;23;20878;-51
2022/01/25 05:59:42;;;;;;;119.67;39.80;;;4.20;1.00;;;;;;6211792;23;20154;-50
2022/01/25 06:02:07;;;;;;;113.00;37.93;;;4.20;1.00;;;;;;6212141;23;20362;-50
2022/01/25 06:04:33;;;;;;;115.10;37.47;;;4.20;1.00;;;;;;6211928;23;20175;-50
2022/01/25 06:06:59;;;;;;;122.93;40.00;;;4.20;1.00;;;;;;6212039;23;20162;-50
2022/01/25 06:09:24;;;;;;;106.07;37.70;;;4.20;1.00;;;;;;6212200;23;20577;-50
2022/01/25 06:11:54;;;;;;;113.27;39.20;;;4.20;1.00;;;;;;6211539;23;20470;-50
2022/01/25 06:14:20;;;;;;;114.13;38.90;;;4.20;1.00;;;;;;6212335;23;20257;-50
2022/01/25 06:16:45;;;;;;;123.70;38.43;;;4.20;54.60;;;;;;6211668;23;20421;-50
2022/01/25 06:19:11;;;;;;;117.27;39.90;;;4.20;99.90;;;;;;6211436;23;20900;-50
2022/01/25 06:21:37;;;;;;;117.03;39.57;;;4.20;99.90;;;;;;6212119;23;20154;-50
2022/01/25 06:24:02;;;;;;;114.30;39.50;;;4.20;68.10;;;;;;6211515;23;20204;-50
2022/01/25 06:26:28;;;;;;;100.60;37.60;;;4.20;99.90;;;;;;6211764;23;20193;-50
2022/01/25 06:28:54;;;;;;;116.60;37.67;;;4.20;1.00;;;;;;6212551;23;20153;-50
2022/01/25 06:31:19;;;;;;;118.07;40.17;;;4.20;1.00;;;;;;6211946;23;20181;-50
2022/01/25 06:33:46;;;;;;;118.10;40.13;;;4.20;1.00;;;;;;6211763;23;20150;-50
2022/01/25 06:36:12;;;;;;;117.17;38.83;;;4.20;26.90;;;;;;6210202;23;20185;-51
2022/01/25 06:38:38;;;;;;;123.33;40.13;;;4.20;99.90;;;;;;6211645;23;20382;-50
2022/01/25 06:41:04;;;;;;;121.87;40.17;;;4.20;99.90;;;;;;6211698;23;20373;-50
2022/01/25 06:43:30;;;;;;;114.73;39.03;;;4.20;1.00;;;;;;6211643;23;20429;-50
2022/01/25 06:46:00;;;;;;;122.30;41.83;;;4.30;1.00;;;;;;6211887;23;20416;-50
2022/01/25 06:48:26;;;;;;;114.80;38.23;;;4.20;1.00;;;;;;6211645;23;20240;-50
2022/01/25 06:50:51;;;;;;;118.73;38.73;;;4.30;1.00;;;;;;6211571;23;20366;-51
2022/01/25 06:53:17;;;;;;;111.83;38.13;;;4.20;36.80;;;;;;6211996;23;20898;-50
2022/01/25 06:55:43;;;;;;;118.67;38.90;;;4.20;1.00;;;;;;6211763;23;20150;-50
2022/01/25 06:58:09;;;;;;;133.77;39.90;;;4.20;99.90;;;;;;6211733;23;20231;-50
2022/01/25 07:00:35;;;;;;;121.43;40.40;;;4.20;1.00;;;;;;6211873;23;20206;-50
2022/01/25 07:03:01;;;;;;;114.73;37.33;;;4.20;1.00;;;;;;6210996;23;20366;-50
2022/01/25 07:05:26;;;;;;;119.50;38.27;;;4.20;1.10;;;;;;6211615;23;20365;-50
2022/01/25 07:07:53;;;;;;;108.90;36.70;;;4.20;1.00;;;;;;6211325;23;20229;-50
2022/01/25 07:10:19;;;;;;;119.27;37.97;;;4.20;1.00;;;;;;6211714;23;20193;-50
2022/01/25 07:12:44;;;;;;;111.33;36.80;;;4.20;99.90;;;;;;6211600;23;20377;-50
2022/01/25 07:15:11;;;;;;;112.37;37.57;;;4.30;1.00;;;;;;6211724;23;20157;-50
2022/01/25 07:17:36;;;;;;;110.30;37.67;;;4.30;1.00;;;;;;6211144;23;20277;-51
2022/01/25 07:20:06;;;;;;;109.73;38.30;;;4.30;1.00;;;;;;6211203;23;20465;-50
2022/01/25 07:22:32;;;;;;;119.30;38.37;;;4.30;1.00;;;;;;6211501;23;20162;-50
2022/01/25 07:24:58;;;;;;;129.60;38.73;;;4.20;99.90;;;;;;6211257;23;20472;-50
2022/01/25 07:27:24;;;;;;;121.07;38.20;;;4.30;1.00;;;;;;6211222;23;20824;-50
2022/01/25 07:29:49;;;;;;;119.30;38.70;;;4.30;1.00;;;;;;6184525;23;20165;-50
2022/01/25 07:32:15;;;;;;;127.80;41.90;;;4.30;99.90;;;;;;6210982;23;20158;-50
2022/01/25 07:34:40;;;;;;;119.47;38.13;;;4.20;1.00;;;;;;6211404;23;20161;-50
2022/01/25 07:37:06;;;;;;;112.60;37.53;;;4.20;99.90;;;;;;6211327;23;20182;-50
2022/01/25 07:39:31;;;;;;;128.93;40.17;;;4.20;99.90;;;;;;6211283;23;20158;-50
2022/01/25 07:41:58;;;;;;;111.90;38.37;;;4.20;1.00;;;;;;6210911;23;20218;-50
2022/01/25 07:44:29;;;;;;;124.17;37.43;;;4.30;1.00;;;;;;6184659;23;20166;-50
2022/01/25 07:46:57;;;;;;;109.83;39.77;;;4.30;1.00;;;;;;6210960;23;20369;-50
2022/01/25 07:49:27;;;;;;;113.37;38.20;;;4.30;1.00;;;;;;6211323;23;20366;-50
2022/01/25 07:51:52;;;;;;;122.57;38.43;;;4.30;66.20;;;;;;6211465;23;20378;-50
2022/01/25 07:54:18;;;;;;;122.67;36.67;;;4.20;99.90;;;;;;6211595;23;20669;-50
2022/01/25 07:56:44;;;;;;;111.80;38.87;;;4.20;99.90;;;;;;6211070;23;20655;-50
2022/01/25 07:59:09;;;;;;;109.53;38.47;;;4.30;99.90;;;;;;6185037;23;20155;-51
2022/01/25 08:01:35;;;;;;;122.27;38.53;;;4.30;99.90;;;;;;6212241;23;20308;-51
2022/01/25 08:04:00;;;;;;;118.77;38.70;;;4.30;99.90;;;;;;6213143;23;20146;-50
2022/01/25 08:06:26;;;;;;;121.83;38.13;;;4.30;99.90;;;;;;6211006;23;20154;-50
2022/01/25 08:08:52;;;;;;;109.43;37.67;;;4.30;99.90;;;;;;6211926;23;20204;-50
2022/01/25 08:11:19;;;;;;;113.90;36.97;;;4.30;99.90;;;;;;6212928;23;20146;-50
2022/01/25 08:13:48;;;;;;;133.57;40.60;;;4.30;1.00;;;;;;6212935;23;20457;-49
2022/01/25 08:16:16;;;;;;;115.63;38.43;;;4.30;1.00;;;;;;6212122;23;20472;-50
2022/01/25 08:18:41;;;;;;;118.90;36.00;;;4.30;1.00;;;;;;6212903;23;20444;-50
2022/01/25 08:21:07;;;;;;;116.60;38.80;;;4.30;1.00;;;;;;6213256;23;20695;-50
2022/01/25 08:23:32;;;;;;;120.90;37.77;;;4.40;1.00;;;;;;6212568;23;20154;-50
2022/01/25 08:25:58;;;;;;;110.33;38.60;;;4.40;1.00;;;;;;6209409;23;20218;-50
2022/01/25 08:28:23;;;;;;;111.23;36.00;;;4.40;1.00;;;;;;6212991;23;20190;-50
2022/01/25 08:30:49;;;;;;;117.70;36.13;;;4.50;1.00;;;;;;6212459;23;20158;-50
2022/01/25 08:33:15;;;;;;;123.97;37.60;;;4.50;1.00;;;;;;6211623;23;20142;-50
2022/01/25 08:35:40;;;;;;;121.17;38.20;;;4.50;1.00;;;;;;6211337;23;20142;-50
2022/01/25 08:38:06;;;;;;;120.03;38.90;;;4.50;1.00;;;;;;6212273;23;20210;-50
2022/01/25 08:40:33;;;;;;;117.33;38.47;;;4.50;1.00;;;;;;6212334;23;20135;-50
2022/01/25 08:42:59;;;;;;;116.37;37.00;;;4.50;1.00;;;;;;6184944;23;20213;-50
2022/01/25 08:45:25;;;;;;;121.77;37.57;;;4.50;1.00;;;;;;6211636;23;20381;-50
2022/01/25 08:47:51;;;;;;;111.17;35.27;;;4.50;1.00;;;;;;6212392;23;20400;-50
2022/01/25 08:50:16;;;;;;;114.80;36.03;;;4.50;1.00;;;;;;6212522;23;20154;-50
2022/01/25 08:52:42;;;;;;;116.47;38.50;;;4.60;1.00;;;;;;6186072;23;20182;-50
2022/01/25 08:55:08;;;;;;;104.27;34.37;;;4.60;1.00;;;;;;6212601;23;20146;-50
2022/01/25 08:57:33;;;;;;;106.17;36.00;;;4.60;1.00;;;;;;6212803;23;20182;-50
2022/01/25 08:59:59;;;;;;;101.87;34.83;;;4.60;1.00;;;;;;6212880;23;20213;-50
2022/01/25 09:02:25;;;;;;;114.40;37.07;;;4.60;1.00;;;;;;6212799;23;20153;-50
2022/01/25 09:04:50;;;;;;;109.93;35.87;;;4.60;1.00;;;;;;6212643;23;20752;-50
2022/01/25 09:07:16;;;;;;;118.17;35.30;;;4.60;1.00;;;;;;6212720;23;20163;-50
2022/01/25 09:09:42;;;;;;;108.73;33.50;;;4.60;1.00;;;;;;6212687;23;20150;-50
2022/01/25 09:12:08;;;;;;;104.27;34.87;;;4.70;1.00;;;;;;6211830;23;20159;-50
2022/01/25 09:14:34;;;;;;;114.43;35.03;;;4.70;1.00;;;;;;6210515;23;20423;-62
2022/01/25 09:16:59;;;;;;;103.00;37.10;;;4.70;1.00;;;;;;6212559;23;20445;-50
2022/01/25 09:19:25;;;;;;;107.90;36.73;;;4.70;1.00;;;;;;6211930;23;20206;-51
2022/01/25 09:21:51;;;;;;;100.97;35.50;;;4.80;1.00;;;;;;6212583;23;20205;-51
2022/01/25 09:24:16;;;;;;;99.70;35.00;;;4.80;1.00;;;;;;6212449;23;20143;-50
2022/01/25 09:26:42;;;;;;;111.33;35.03;;;4.80;1.00;;;;;;6212174;23;20651;-51
2022/01/25 09:29:08;;;;;;;97.83;35.60;;;4.80;1.00;;;;;;6212071;23;20162;-50
2022/01/25 09:31:33;;;;;;;92.90;34.10;;;4.90;1.00;;;;;;6209802;23;20577;-51
2022/01/25 09:33:59;;;;;;;105.33;34.23;;;4.80;1.00;;;;;;6212067;23;20177;-50
2022/01/25 09:36:25;;;;;;;110.90;36.13;;;4.80;1.00;;;;;;6212064;23;20174;-51
2022/01/25 09:38:53;;;;;;;105.30;36.23;;;4.90;1.00;;;;;;6211826;23;20354;-51
2022/01/25 09:41:19;;;;;;;96.97;34.20;;;4.90;1.00;;;;;;6211772;23;20377;-50
2022/01/25 09:43:44;;;;;;;96.40;34.57;;;4.80;1.00;;;;;;6212037;23;20877;-51
2022/01/25 09:46:10;;;;;;;96.07;32.27;;;4.90;1.00;;;;;;6209957;23;20437;-50
2022/01/25 09:48:35;;;;;;;106.77;35.77;;;4.90;1.00;;;;;;6211572;23;20162;-50
2022/01/25 09:51:02;;;;;;;82.77;31.30;;;4.90;1.00;;;;;;6211503;23;20151;-51
2022/01/25 09:53:29;;;;;;;93.50;33.20;;;4.90;1.00;;;;;;6212302;23;20559;-50
2022/01/25 09:55:55;;;;;;;102.07;34.07;;;4.90;1.00;;;;;;6211919;23;20444;-51
2022/01/25 09:58:21;;;;;;;85.00;32.10;;;4.90;1.00;;;;;;6211637;23;20472;-51
2022/01/25 10:00:48;;;;;;;102.00;33.93;;;5.00;9.20;;;;;;6211902;23;20382;-51
2022/01/25 10:03:24;;;;;;;107.30;37.30;;;5.00;12.70;;;;;;6210581;23;20384;-51
2022/01/25 10:05:51;;;;;;;107.40;36.77;;;5.00;18.50;;;;;;6210104;23;20135;-51
2022/01/25 10:08:22;;;;;;;94.37;33.00;;;5.10;27.70;;;;;;6211974;23;20371;-51
2022/01/25 10:10:50;;;;;;;111.20;34.40;;;5.10;39.30;;;;;;6211797;23;20370;-50
2022/01/25 10:13:21;;;;;;;101.57;32.43;;;5.10;14.40;;;;;;6212378;23;20388;-50
2022/01/25 10:15:48;;;;;;;96.67;33.83;;;5.10;1.00;;;;;;6212105;23;20804;-51
2022/01/25 10:18:15;;;;;;;93.20;34.23;;;5.20;1.00;;;;;;6211737;23;20444;-51
2022/01/25 10:20:43;;;;;;;91.40;32.00;;;5.20;1.00;;;;;;6211999;23;20738;-50
2022/01/25 10:23:13;;;;;;;92.40;32.50;;;5.30;1.00;;;;;;6209554;23;20480;-51
2022/01/25 10:25:45;;;;;;;81.60;30.60;;;5.40;1.00;;;;;;6212148;23;20842;-51
2022/01/25 10:28:13;;;;;;;82.20;32.23;;;5.40;1.00;;;;;;6212319;23;20808;-50
2022/01/25 10:30:50;;;;;;;96.30;31.37;;;5.40;1.00;;;;;;6212063;23;20464;-50
2022/01/25 10:33:27;;;;;;;89.50;30.63;;;5.40;1.00;;;;;;6211827;23;20365;-51
2022/01/25 10:35:54;;;;;;;91.23;30.73;;;5.40;1.00;;;;;;6185151;23;20484;-50
2022/01/25 10:38:21;;;;;;;81.97;30.97;;;5.40;99.90;;;;;;6212090;23;20409;-51
2022/01/25 10:40:57;;;;;;;81.03;28.93;;;5.50;1.00;;;;;;6211945;23;20430;-50
2022/01/25 10:43:25;;;;;;;83.33;31.70;;;5.50;99.90;;;;;;6209906;23;20823;-51
2022/01/25 10:46:26;;;;;;;88.77;31.50;;;5.40;99.90;;;;;;6211684;23;20366;-50
2022/01/25 10:49:06;;;;;;;84.47;30.70;;;5.40;99.90;;;;;;6163613;23;20391;-50
2022/01/25 10:51:38;;;;;;;83.27;28.27;;;5.50;1.00;;;;;;6211961;23;20377;-54
2022/01/25 10:54:13;;;;;;;84.30;29.13;;;5.50;1.00;;;;;;6211668;23;20868;-57
2022/01/25 10:56:59;;;;;;;75.27;28.07;;;5.50;99.90;;;;;;6211676;23;20431;-50
2022/01/25 10:59:32;;;;;;;76.83;27.93;;;5.50;99.90;;;;;;6212005;23;20370;-51
2022/01/25 11:02:04;;;;;;;89.33;29.43;;;5.50;99.90;;;;;;6211873;23;20401;-51
2022/01/25 11:04:37;;;;;;;81.43;28.90;;;5.50;1.00;;;;;;6211870;23;20878;-51
2022/01/25 11:07:08;;;;;;;84.73;27.43;;;5.50;1.00;;;;;;6212014;23;20829;-51
2022/01/25 11:09:38;;;;;;;83.80;31.07;;;5.60;1.00;;;;;;6212078;23;20377;-51
2022/01/25 11:12:11;;;;;;;83.47;29.10;;;5.60;1.00;;;;;;6209518;23;20377;-51
2022/01/25 11:17:40;;;;;;;75.53;26.70;;;5.70;99.90;;;;;;6120652;23;20494;-51
2022/01/25 11:20:06;;;;;;;82.43;28.40;;;5.60;47.80;;;;;;6193337;23;20456;-50
2022/01/25 11:22:32;;;;;;;76.33;28.10;;;5.60;99.90;;;;;;6211781;23;20365;-51
2022/01/25 11:25:00;;;;;;;79.60;28.97;;;5.60;99.90;;;;;;6211788;23;20370;-50
2022/01/25 11:27:28;;;;;;;67.07;27.53;;;5.70;99.90;;;;;;6212021;23;20412;-50
2022/01/25 11:29:57;;;;;;;78.10;28.67;;;5.70;99.90;;;;;;6211796;23;20723;-51
2022/01/25 11:32:28;;;;;;;80.40;29.90;;;5.70;99.90;;;;;;6211798;23;20374;-51
2022/01/25 11:34:55;;;;;;;82.63;30.30;;;5.70;99.90;;;;;;6211588;23;20378;-51
2022/01/25 11:37:37;;;;;;;78.57;27.30;;;5.70;99.90;;;;;;6212608;23;20417;-51
2022/01/25 11:40:18;;;;;;;80.00;27.37;;;5.70;99.90;;;;;;6213142;23;20440;-51
2022/01/25 11:42:47;;;;;;;73.83;27.83;;;5.70;99.90;;;;;;6213226;23;20368;-51
2022/01/25 11:45:13;;;;;;;76.17;27.87;;;5.70;99.90;;;;;;6213562;23;20396;-51
2022/01/25 11:47:38;;;;;;;74.07;28.80;;;5.80;99.90;;;;;;6213416;23;20381;-51
2022/01/25 11:50:10;;;;;;;89.47;31.33;;;5.70;99.90;;;;;;6186765;23;20483;-50
2022/01/25 11:52:46;;;;;;;76.07;28.92;;;5.70;99.90;;;;;;6213289;23;20373;-51
2022/01/25 11:55:24;;;;;;;74.47;27.87;;;5.70;99.90;;;;;;6213489;23;20150;-51
2022/01/25 11:57:54;;;;;;;71.90;27.10;;;5.70;99.90;;;;;;6213810;23;20415;-51
2022/01/25 12:00:41;;;;;;;75.60;26.73;;;5.70;99.90;;;;;;6213543;23;20436;-50
2022/01/25 12:03:33;;;;;;;68.67;27.17;;;5.70;99.90;;;;;;6212526;23;20389;-50
2022/01/25 12:06:31;;;;;;;65.67;25.60;;;5.70;99.90;;;;;;6213703;23;20370;-49
2022/01/25 12:11:51;;;;;;;74.73;26.77;;;5.80;1.00;;;;;;6213676;23;20349;-50
2022/01/25 12:14:41;;;;;;;68.90;25.40;;;5.90;99.90;;;;;;6213337;23;20362;-50
2022/01/25 12:17:16;;;;;;;68.70;25.40;;;5.90;99.90;;;;;;6212690;23;20463;-50
2022/01/25 12:19:47;;;;;;;60.93;24.60;;;5.90;1.00;;;;;;6213196;23;20201;-50
2022/01/25 12:22:17;;;;;;;62.47;23.67;;;5.90;22.50;;;;;;6214196;23;20366;-51
2022/01/25 12:24:43;;;;;;;61.30;23.90;;;6.00;39.70;;;;;;6212921;23;20358;-50
2022/01/25 12:29:59;;;;;;;60.53;23.50;;;6.00;99.90;;;;;;6213472;23;20212;-50
2022/01/25 12:32:28;;;;;;;61.67;24.07;;;6.10;99.90;;;;;;6212028;23;20397;-50
2022/01/25 12:35:18;;;;;;;58.60;22.83;;;6.10;99.90;;;;;;6212217;23;20424;-50
2022/01/25 12:37:53;;;;;;;57.90;23.63;;;6.20;1.00;;;;;;6212546;23;20452;-50
2022/01/25 12:40:25;;;;;;;59.97;23.63;;;6.20;1.00;;;;;;6213383;23;20364;-50
2022/01/25 12:42:55;;;;;;;57.37;23.30;;;6.30;1.00;;;;;;6213510;23;20456;-51
2022/01/25 12:45:22;;;;;;;55.63;21.97;;;6.30;1.00;;;;;;6213005;23;20440;-50
2022/01/25 12:48:05;;;;;;;58.23;23.57;;;6.30;1.00;;;;;;6213642;23;20437;-50
2022/01/25 12:50:31;;;;;;;56.30;22.60;;;6.20;1.00;;;;;;6212946;23;20373;-50
2022/01/25 12:53:01;;;;;;;62.30;23.40;;;6.20;1.00;;;;;;6213262;23;20378;-50
2022/01/25 12:55:30;;;;;;;54.77;21.90;;;6.10;44.00;;;;;;6213239;23;20973;-50
2022/01/25 12:57:57;;;;;;;56.70;22.17;;;6.10;1.00;;;;;;6186159;23;21002;-50
2022/01/25 13:00:30;;;;;;;55.97;20.97;;;6.10;1.00;;;;;;6212909;23;20362;-50
2022/01/25 13:03:11;;;;;;;49.00;20.90;;;6.10;1.00;;;;;;6212935;23;20381;-50
2022/01/25 13:05:52;;;;;;;64.10;22.77;;;6.20;99.90;;;;;;6212516;23;20710;-50
2022/01/25 13:09:00;;;;;;;61.07;22.07;;;6.10;1.00;;;;;;6212681;23;20369;-51
2022/01/25 13:17:03;;;;;;;51.83;21.73;;;6.00;1.00;;;;;;6221068;23;20440;-51
2022/01/25 13:19:35;;;;;;;45.40;19.83;;;6.10;69.60;;;;;;6212313;23;20491;-50
2022/01/25 13:22:14;;;;;;;49.83;19.93;;;6.00;45.50;;;;;;6212912;23;20192;-51
2022/01/25 13:24:50;;;;;;;50.13;19.73;;;6.00;1.00;;;;;;6212723;23;20443;-50
2022/01/25 13:27:17;;;;;;;50.77;19.67;;;6.00;99.90;;;;;;6212662;23;20377;-50
2022/01/25 13:32:37;;;;;;;49.30;18.80;;;5.90;1.00;;;;;;6212904;23;20373;-50
2022/01/25 13:35:16;;;;;;;46.47;18.30;;;6.00;1.00;;;;;;6212237;23;20666;-50
2022/01/25 13:37:43;;;;;;;43.37;17.63;;;6.00;3.90;;;;;;6212734;23;20417;-50
2022/01/25 13:40:09;;;;;;;46.30;18.23;;;5.90;1.00;;;;;;6212231;23;20385;-50
2022/01/25 13:42:56;;;;;;;48.23;18.83;;;5.90;54.20;;;;;;6212554;23;20362;-51
2022/01/25 13:48:10;;;;;;;52.20;18.40;;;6.00;1.00;;;;;;6212132;23;20388;-50
2022/01/25 13:50:38;;;;;;;45.67;18.00;;;6.00;1.00;;;;;;6212492;23;20691;-50
2022/01/25 13:53:05;;;;;;;47.37;17.43;;;6.00;1.00;;;;;;6212565;23;20424;-50
2022/01/25 13:55:31;;;;;;;39.33;17.53;;;6.00;1.00;;;;;;6212570;23;20370;-51
2022/01/25 13:57:57;;;;;;;41.53;18.30;;;5.90;1.00;;;;;;6212660;23;20448;-51
2022/01/25 14:00:24;;;;;;;39.43;14.90;;;5.90;99.90;;;;;;6211774;23;20472;-50
2022/01/25 14:02:55;;;;;;;38.67;15.00;;;5.90;18.50;;;;;;6212833;23;20636;-50
2022/01/25 14:05:21;;;;;;;39.57;16.00;;;5.90;90.70;;;;;;6212838;23;20366;-50
2022/01/25 14:07:53;;;;;;;39.93;15.93;;;6.00;30.40;;;;;;6212762;23;20468;-49
2022/01/25 14:10:24;;;;;;;35.17;15.57;;;5.90;99.90;;;;;;6212570;23;20370;-50
2022/01/25 14:23:50;;;;;;;39.50;15.43;;;5.90;1.00;;;;;;6212153;23;20614;-50
2022/01/25 14:26:17;;;;;;;35.67;15.70;;;5.80;1.00;;;;;;6212888;23;20385;-50
2022/01/25 14:28:51;;;;;;;37.27;14.70;;;5.80;1.00;;;;;;6212322;23;20457;-50
2022/01/25 14:31:18;;;;;;;39.80;16.30;;;5.80;10.30;;;;;;6212276;23;20367;-50
2022/01/25 14:34:01;;;;;;;40.17;15.83;;;5.80;48.40;;;;;;6211526;23;20381;-50